createdAt,value
2022-10-20T00:02:15.285Z,40.47
2022-10-20T00:04:42.034Z,40.97
2022-10-20T00:07:08.660Z,46.50
2022-10-20T00:09:35.230Z,46.60
2022-10-20T00:12:01.849Z,43.60
2022-10-20T00:14:28.437Z,46.53
2022-10-20T00:16:55.056Z,36.97
2022-10-20T00:19:21.661Z,39.22
2022-10-20T00:21:48.313Z,41.30
2022-10-20T00:24:14.881Z,39.28
2022-10-20T00:26:41.503Z,35.42
2022-10-20T00:29:08.241Z,38.65
2022-10-20T00:31:34.929Z,35.53
2022-10-20T00:34:01.621Z,40.65
2022-10-20T00:36:28.230Z,33.22
2022-10-20T00:39:00.146Z,42.72
2022-10-20T00:41:27.740Z,39.05
2022-10-20T00:44:01.068Z,37.53
2022-10-20T00:46:37.840Z,41.88
2022-10-20T00:49:17.777Z,39.38
2022-10-20T00:51:44.521Z,36.33
2022-10-20T00:54:17.185Z,35.22
2022-10-20T00:56:45.530Z,39.55
2022-10-20T00:59:16.568Z,42.25
2022-10-20T01:01:44.178Z,38.72
2022-10-20T01:04:11.361Z,42.55
2022-10-20T01:06:38.576Z,38.58
2022-10-20T01:09:06.090Z,37.80
2022-10-20T01:12:00.695Z,38.20
2022-10-20T01:14:55.327Z,38.83
2022-10-20T01:17:42.580Z,40.20
2022-10-20T01:20:45.661Z,43.00
2022-10-20T01:23:43.169Z,40.10
2022-10-20T01:26:40.792Z,45.38
2022-10-20T01:29:16.177Z,49.67
2022-10-20T01:31:52.945Z,42.85
2022-10-20T01:34:49.173Z,50.17
2022-10-20T01:37:52.751Z,59.03
2022-10-20T01:40:48.616Z,49.97
2022-10-20T01:43:20.033Z,59.97
2022-10-20T01:45:49.118Z,61.28
2022-10-20T01:48:19.806Z,78.82
2022-10-20T01:50:47.455Z,75.50
2022-10-20T01:53:14.621Z,78.70
2022-10-20T01:55:41.668Z,72.53
2022-10-20T01:58:15.768Z,56.00
2022-10-20T02:00:43.997Z,69.15
2022-10-20T02:03:35.097Z,57.60
2022-10-20T02:06:09.331Z,55.63
2022-10-20T02:08:52.337Z,47.50
2022-10-20T02:11:29.533Z,42.95
2022-10-20T02:13:58.132Z,46.80
2022-10-20T02:16:40.429Z,48.13
2022-10-20T02:19:08.939Z,40.55
2022-10-20T02:21:36.517Z,46.50
2022-10-20T02:24:06.417Z,41.97
2022-10-20T02:26:35.598Z,39.65
2022-10-20T02:29:09.673Z,40.22
2022-10-20T02:31:36.517Z,39.33
2022-10-20T02:34:03.875Z,42.25
2022-10-20T02:36:30.554Z,44.80
2022-10-20T02:38:57.209Z,39.53
2022-10-20T02:41:23.893Z,45.38
2022-10-20T02:43:50.506Z,43.55
2022-10-20T02:46:17.454Z,37.83
2022-10-20T02:48:44.405Z,38.75
2022-10-20T02:51:11.752Z,39.35
2022-10-20T02:53:38.559Z,44.53
2022-10-20T02:56:05.416Z,40.40
2022-10-20T02:58:32.098Z,36.90
2022-10-20T03:00:58.691Z,31.83
2022-10-20T03:03:25.406Z,35.33
2022-10-20T03:05:52.004Z,39.08
2022-10-20T03:08:18.801Z,36.40
2022-10-20T03:10:45.439Z,34.50
2022-10-20T03:13:12.331Z,38.60
2022-10-20T03:15:39.002Z,40.38
2022-10-20T03:18:05.587Z,28.15
2022-10-20T03:20:33.040Z,32.17
2022-10-20T03:23:00.047Z,30.35
2022-10-20T03:25:26.672Z,28.38
2022-10-20T03:27:53.263Z,29.10
2022-10-20T03:30:19.873Z,30.38
2022-10-20T03:32:46.473Z,30.50
2022-10-20T03:35:13.105Z,27.55
2022-10-20T03:37:39.839Z,30.23
2022-10-20T03:40:06.965Z,25.73
2022-10-20T03:42:33.833Z,27.95
2022-10-20T03:45:00.542Z,29.25
2022-10-20T03:49:53.676Z,27.17
2022-10-20T03:52:20.287Z,28.35
2022-10-20T03:54:47.175Z,27.48
2022-10-20T03:57:16.125Z,30.25
2022-10-20T03:59:42.740Z,27.90
2022-10-20T04:02:23.129Z,27.13
2022-10-20T04:04:49.737Z,29.70
2022-10-20T04:07:16.328Z,27.45
2022-10-20T04:09:42.915Z,27.58
2022-10-20T04:12:09.511Z,27.73
2022-10-20T04:14:36.141Z,28.23
2022-10-20T04:17:04.029Z,24.73
2022-10-20T04:19:30.581Z,23.70
2022-10-20T04:21:57.147Z,22.33
2022-10-20T04:24:23.741Z,26.45
2022-10-20T04:29:21.874Z,21.58
2022-10-20T04:31:49.302Z,23.85
2022-10-20T04:34:16.151Z,24.13
2022-10-20T04:36:42.772Z,25.02
2022-10-20T04:39:09.362Z,23.38
2022-10-20T04:41:36.058Z,30.10
2022-10-20T04:44:02.869Z,29.05
2022-10-20T04:46:29.650Z,27.98
2022-10-20T04:48:59.171Z,24.05
2022-10-20T04:51:27.544Z,25.45
2022-10-20T04:53:54.451Z,30.45
2022-10-20T04:56:22.242Z,26.23
2022-10-20T04:58:53.922Z,32.22
2022-10-20T05:01:21.953Z,33.58
2022-10-20T05:03:48.622Z,29.73
2022-10-20T05:06:16.561Z,30.52
2022-10-20T05:08:46.427Z,32.58
2022-10-20T05:11:14.489Z,27.60
2022-10-20T05:13:41.320Z,33.53
2022-10-20T05:16:08.570Z,32.92
2022-10-20T05:18:35.739Z,34.05
2022-10-20T05:21:09.775Z,31.13
2022-10-20T05:23:37.307Z,31.38
2022-10-20T05:26:09.245Z,39.13
2022-10-20T05:28:35.844Z,35.97
2022-10-20T05:31:03.777Z,34.25
2022-10-20T05:33:30.698Z,37.63
2022-10-20T05:35:57.355Z,41.47
2022-10-20T05:38:23.932Z,38.63
2022-10-20T05:40:50.581Z,41.42
2022-10-20T05:43:17.544Z,52.72
2022-10-20T05:45:44.187Z,46.03
2022-10-20T05:48:11.083Z,47.20
2022-10-20T05:50:38.542Z,53.22
2022-10-20T05:53:05.186Z,57.45
2022-10-20T05:55:32.777Z,52.17
2022-10-20T05:57:59.397Z,49.65
2022-10-20T06:00:30.908Z,46.38
2022-10-20T06:02:57.888Z,51.88
2022-10-20T06:05:24.521Z,46.33
2022-10-20T06:07:54.110Z,48.00
2022-10-20T06:10:20.871Z,45.67
2022-10-20T06:12:47.444Z,50.25
2022-10-20T06:15:14.119Z,54.55
2022-10-20T06:17:40.712Z,55.08
2022-10-20T06:20:07.536Z,50.50
2022-10-20T06:22:34.507Z,51.17
2022-10-20T06:25:01.634Z,58.15
2022-10-20T06:27:28.183Z,57.42
2022-10-20T06:29:54.817Z,65.43
2022-10-20T06:32:21.441Z,56.30
2022-10-20T06:34:47.991Z,60.22
2022-10-20T06:37:14.564Z,63.13
2022-10-20T06:39:41.141Z,60.42
2022-10-20T06:42:11.020Z,64.18
2022-10-20T06:44:44.830Z,59.60
2022-10-20T06:47:11.425Z,62.58
2022-10-20T06:49:37.996Z,69.55
2022-10-20T06:52:04.849Z,62.17
2022-10-20T06:54:31.530Z,59.47
2022-10-20T06:56:58.178Z,64.38
2022-10-20T06:59:24.792Z,63.25
2022-10-20T07:01:52.779Z,63.13
2022-10-20T07:04:19.403Z,64.93
2022-10-20T07:06:47.102Z,67.63
2022-10-20T07:09:16.894Z,65.45
2022-10-20T07:11:44.052Z,70.63
2022-10-20T07:14:13.525Z,80.57
2022-10-20T07:16:40.176Z,68.63
2022-10-20T07:19:06.998Z,67.13
2022-10-20T07:21:36.609Z,79.05
2022-10-20T07:24:06.480Z,75.70
2022-10-20T07:26:35.406Z,73.80
2022-10-20T07:29:03.721Z,74.63
2022-10-20T07:31:42.576Z,76.05
2022-10-20T07:34:24.926Z,76.40
2022-10-20T07:36:53.113Z,81.43
2022-10-20T07:39:19.785Z,73.95
2022-10-20T07:41:47.887Z,76.95
2022-10-20T07:44:15.476Z,72.18
2022-10-20T07:46:42.088Z,81.70
2022-10-20T07:49:42.418Z,76.90
2022-10-20T07:51:55.623Z,60.97
2022-10-20T07:54:22.254Z,64.15
2022-10-20T07:56:49.428Z,67.05
2022-10-20T07:59:16.083Z,58.75
2022-10-20T08:01:43.052Z,64.97
2022-10-20T08:04:09.796Z,60.22
2022-10-20T08:06:36.455Z,58.00
2022-10-20T08:09:04.055Z,56.15
2022-10-20T08:11:30.728Z,50.00
2022-10-20T08:13:57.310Z,54.05
2022-10-20T08:16:30.478Z,44.63
2022-10-20T08:21:43.738Z,45.67
2022-10-20T08:24:10.395Z,45.55
2022-10-20T08:26:36.960Z,44.33
2022-10-20T08:29:03.573Z,53.55
2022-10-20T08:31:30.198Z,47.88
2022-10-20T08:33:57.228Z,50.03
2022-10-20T08:36:24.006Z,39.70
2022-10-20T08:38:50.632Z,39.05
2022-10-20T08:41:23.121Z,36.78
2022-10-20T08:43:52.244Z,32.50
2022-10-20T08:46:22.979Z,32.53
2022-10-20T08:48:50.271Z,36.70
2022-10-20T08:51:27.847Z,30.98
2022-10-20T08:53:57.062Z,30.08
2022-10-20T08:56:27.204Z,29.38
2022-10-20T08:58:54.221Z,30.88
2022-10-20T09:01:26.910Z,30.52
2022-10-20T09:04:00.030Z,27.05
2022-10-20T09:06:26.681Z,26.55
2022-10-20T09:08:55.093Z,23.55
2022-10-20T09:11:27.114Z,25.67
2022-10-20T09:13:54.376Z,31.27
2022-10-20T09:16:40.743Z,22.00
2022-10-20T09:19:22.845Z,21.90
2022-10-20T09:21:55.586Z,21.40
2022-10-20T09:24:22.892Z,24.90
2022-10-20T09:26:59.603Z,21.40
2022-10-20T09:29:37.942Z,18.52
2022-10-20T09:32:45.136Z,19.23
2022-10-20T09:35:20.905Z,21.52
2022-10-20T09:37:58.286Z,18.50
2022-10-20T09:40:26.410Z,17.63
2022-10-20T09:43:02.210Z,19.23
2022-10-20T09:45:31.690Z,17.20
2022-10-20T09:48:29.030Z,18.52
2022-10-20T09:50:58.623Z,17.02
2022-10-20T09:53:33.181Z,17.00
2022-10-20T09:56:00.248Z,15.65
2022-10-20T09:58:30.171Z,17.27
2022-10-20T10:01:03.473Z,15.85
2022-10-20T10:03:44.842Z,16.30
2022-10-20T10:06:28.429Z,15.25
2022-10-20T10:08:56.396Z,15.55
2022-10-20T10:11:34.029Z,15.13
2022-10-20T10:14:01.652Z,14.30
2022-10-20T10:16:39.651Z,14.85
2022-10-20T10:19:06.847Z,14.52
2022-10-20T10:21:51.225Z,14.70
2022-10-20T10:24:39.474Z,13.68
2022-10-20T10:27:19.305Z,14.90
2022-10-20T10:29:46.193Z,13.77
2022-10-20T10:32:27.426Z,14.13
2022-10-20T10:35:12.307Z,13.23
2022-10-20T10:37:42.138Z,13.40
2022-10-20T10:40:15.107Z,15.50
2022-10-20T10:42:53.826Z,17.08
2022-10-20T10:45:46.305Z,14.65
2022-10-20T10:48:57.291Z,12.68
2022-10-20T10:51:41.173Z,11.38
2022-10-20T10:54:17.057Z,13.65
2022-10-20T10:56:50.697Z,10.10
2022-10-20T10:59:23.508Z,12.10
2022-10-20T11:02:22.819Z,11.38
2022-10-20T11:05:24.493Z,11.65
2022-10-20T11:07:59.787Z,10.48
2022-10-20T11:10:33.137Z,9.95
2022-10-20T11:13:23.047Z,11.57
2022-10-20T11:16:07.979Z,11.85
2022-10-20T11:18:47.695Z,12.07
2022-10-20T11:21:44.025Z,10.65
2022-10-20T11:24:35.940Z,12.40
2022-10-20T11:27:15.630Z,11.15
2022-10-20T11:29:53.225Z,11.23
2022-10-20T11:35:21.963Z,9.68
2022-10-20T11:38:11.726Z,10.07
2022-10-20T11:40:40.488Z,11.60
2022-10-20T11:43:30.572Z,10.30
2022-10-20T11:46:04.781Z,9.95
2022-10-20T11:48:46.638Z,11.43
2022-10-20T11:51:34.357Z,11.00
2022-10-20T11:54:06.888Z,11.07
2022-10-20T11:56:51.503Z,9.15
2022-10-20T11:59:39.677Z,12.43
2022-10-20T12:02:47.011Z,11.48
2022-10-20T12:05:39.533Z,10.27
2022-10-20T12:08:30.565Z,12.32
2022-10-20T12:11:16.328Z,10.55
2022-10-20T12:14:00.263Z,10.45
2022-10-20T12:16:51.806Z,11.40
2022-10-20T12:19:27.264Z,12.30
2022-10-20T12:21:59.796Z,10.88
2022-10-20T12:24:52.404Z,10.98
2022-10-20T12:27:24.496Z,12.32
2022-10-20T12:30:00.317Z,10.57
2022-10-20T12:33:09.280Z,9.27
2022-10-20T12:35:59.132Z,9.85
2022-10-20T12:38:26.945Z,9.75
2022-10-20T12:40:57.927Z,9.23
2022-10-20T12:43:28.787Z,10.93
2022-10-20T12:46:05.465Z,10.48
2022-10-20T12:48:35.190Z,12.50
2022-10-20T12:51:06.042Z,11.82
2022-10-20T12:53:33.101Z,10.27
2022-10-20T12:56:08.882Z,11.40
2022-10-20T12:58:59.854Z,10.98
2022-10-20T13:01:28.476Z,12.93
2022-10-20T13:03:55.055Z,9.63
2022-10-20T13:06:26.167Z,10.40
2022-10-20T13:09:04.962Z,12.07
2022-10-20T13:11:37.915Z,17.48
2022-10-20T13:14:13.611Z,9.43
2022-10-20T13:16:50.806Z,10.30
2022-10-20T13:19:32.440Z,10.43
2022-10-20T13:21:59.806Z,11.57
2022-10-20T13:24:32.383Z,11.20
2022-10-20T13:27:04.064Z,9.95
2022-10-20T13:29:36.402Z,10.15
2022-10-20T13:35:04.042Z,9.27
2022-10-20T13:37:39.415Z,10.05
2022-10-20T13:40:27.672Z,9.57
2022-10-20T13:43:07.802Z,11.90
2022-10-20T13:45:39.443Z,11.77
2022-10-20T13:48:31.235Z,11.73
2022-10-20T13:51:05.846Z,11.50
2022-10-20T13:53:38.234Z,10.07
2022-10-20T13:56:16.941Z,8.07
2022-10-20T13:59:44.639Z,9.68
2022-10-20T14:02:25.454Z,9.45
2022-10-20T14:05:19.301Z,13.73
2022-10-20T14:07:53.174Z,11.90
2022-10-20T14:10:38.791Z,8.25
2022-10-20T14:13:17.096Z,8.40
2022-10-20T14:15:50.857Z,11.27
2022-10-20T14:18:29.868Z,15.88
2022-10-20T14:21:14.364Z,11.38
2022-10-20T14:23:45.589Z,11.93
2022-10-20T14:26:18.803Z,9.52
2022-10-20T14:28:49.659Z,9.70
2022-10-20T14:31:16.809Z,15.40
2022-10-20T14:33:45.624Z,8.60
2022-10-20T14:36:33.543Z,9.75
2022-10-20T14:39:01.166Z,10.52
2022-10-20T14:41:33.387Z,11.35
2022-10-20T14:44:08.522Z,9.93
2022-10-20T14:46:44.926Z,9.80
2022-10-20T14:49:31.325Z,11.13
2022-10-20T14:52:03.426Z,16.73
2022-10-20T14:54:36.315Z,13.52
2022-10-20T14:57:09.594Z,9.75
2022-10-20T14:59:49.574Z,10.18
2022-10-20T15:02:23.186Z,13.32
2022-10-20T15:04:53.557Z,12.43
2022-10-20T15:07:34.065Z,9.68
2022-10-20T15:10:08.556Z,11.38
2022-10-20T15:12:42.754Z,10.70
2022-10-20T15:15:12.451Z,12.32
2022-10-20T15:17:48.422Z,10.35
2022-10-20T15:20:37.371Z,11.23
2022-10-20T15:23:10.382Z,11.15
2022-10-20T15:25:48.261Z,12.60
2022-10-20T15:28:17.638Z,13.25
2022-10-20T15:30:44.266Z,12.27
2022-10-20T15:33:10.861Z,13.35
2022-10-20T15:35:40.923Z,11.68
2022-10-20T15:38:09.004Z,12.27
2022-10-20T15:40:35.886Z,8.90
2022-10-20T15:43:02.457Z,10.05
2022-10-20T15:45:35.041Z,9.30
2022-10-20T15:48:01.645Z,10.02
2022-10-20T15:50:28.635Z,10.48
2022-10-20T15:52:55.326Z,9.25
2022-10-20T15:55:27.471Z,12.05
2022-10-20T15:57:55.235Z,10.75
2022-10-20T16:00:24.178Z,9.07
2022-10-20T16:02:51.345Z,13.48
2022-10-20T16:05:20.596Z,13.73
2022-10-20T16:07:48.222Z,10.65
2022-10-20T16:10:14.818Z,11.43
2022-10-20T16:12:41.450Z,12.45
2022-10-20T16:15:09.328Z,12.65
2022-10-20T16:17:36.266Z,11.65
2022-10-20T16:20:04.776Z,12.80
2022-10-20T16:22:31.413Z,10.73
2022-10-20T16:25:01.192Z,9.82
2022-10-20T16:27:29.109Z,15.25
2022-10-20T16:29:55.818Z,12.38
2022-10-20T16:32:22.596Z,12.55
2022-10-20T16:34:49.440Z,14.07
2022-10-20T16:37:16.030Z,13.35
2022-10-20T16:39:42.693Z,15.73
2022-10-20T16:42:09.343Z,10.98
2022-10-20T16:44:35.933Z,12.32
2022-10-20T16:47:02.502Z,14.75
2022-10-20T16:49:29.093Z,11.93
2022-10-20T16:51:55.785Z,13.85
2022-10-20T16:54:22.358Z,12.65
2022-10-20T16:56:49.143Z,12.27
2022-10-20T16:59:15.971Z,12.25
2022-10-20T17:01:42.574Z,10.45
2022-10-20T17:04:11.453Z,17.10
2022-10-20T17:06:38.499Z,14.48
2022-10-20T17:09:05.327Z,13.90
2022-10-20T17:11:32.841Z,14.35
2022-10-20T17:13:59.918Z,14.20
2022-10-20T17:16:31.929Z,11.93
2022-10-20T17:18:59.949Z,11.85
2022-10-20T17:21:27.613Z,14.27
2022-10-20T17:23:54.259Z,11.60
2022-10-20T17:26:23.429Z,11.43
2022-10-20T17:28:50.585Z,15.90
2022-10-20T17:31:18.435Z,11.23
2022-10-20T17:33:46.253Z,12.27
2022-10-20T17:36:13.603Z,14.18
2022-10-20T17:38:43.669Z,14.82
2022-10-20T17:41:13.371Z,12.07
2022-10-20T17:43:40.755Z,10.73
2022-10-20T17:46:13.326Z,11.80
2022-10-20T17:48:40.485Z,12.63
2022-10-20T17:51:12.367Z,13.35
2022-10-20T17:53:40.881Z,13.20
2022-10-20T17:56:13.378Z,13.70
2022-10-20T17:58:42.176Z,14.13
2022-10-20T18:01:17.168Z,12.85
2022-10-20T18:03:45.275Z,14.20
2022-10-20T18:06:18.672Z,12.60
2022-10-20T18:08:46.533Z,13.85
2022-10-20T18:11:19.120Z,17.65
2022-10-20T18:13:46.467Z,12.93
2022-10-20T18:16:15.662Z,15.32
2022-10-20T18:18:42.618Z,14.13
2022-10-20T18:21:12.405Z,12.05
2022-10-20T18:23:41.308Z,11.52
2022-10-20T18:26:11.116Z,12.45
2022-10-20T18:28:43.092Z,12.90
2022-10-20T18:31:14.510Z,18.30
2022-10-20T18:33:44.422Z,17.15
2022-10-20T18:36:13.944Z,14.65
2022-10-20T18:38:43.024Z,9.98
2022-10-20T18:41:14.290Z,10.93
2022-10-20T18:43:41.566Z,11.80
2022-10-20T18:46:10.133Z,12.75
2022-10-20T18:48:39.239Z,12.25
2022-10-20T18:51:08.032Z,12.20
2022-10-20T18:53:37.245Z,12.13
2022-10-20T18:56:12.207Z,10.77
2022-10-20T18:58:40.346Z,13.88
2022-10-20T19:01:13.212Z,10.02
2022-10-20T19:03:41.149Z,12.45
2022-10-20T19:06:19.958Z,10.43
2022-10-20T19:08:52.760Z,12.18
2022-10-20T19:11:20.568Z,15.05
2022-10-20T19:13:47.326Z,12.68
2022-10-20T19:16:17.233Z,13.80
2022-10-20T19:18:46.218Z,12.68
2022-10-20T19:21:13.300Z,10.55
2022-10-20T19:23:50.317Z,12.13
2022-10-20T19:26:26.486Z,11.07
2022-10-20T19:29:02.867Z,13.93
2022-10-20T19:31:31.415Z,10.85
2022-10-20T19:34:11.012Z,11.98
2022-10-20T19:36:41.034Z,12.73
2022-10-20T19:39:10.446Z,11.07
2022-10-20T19:41:38.527Z,15.38
2022-10-20T19:44:05.286Z,10.30
2022-10-20T19:46:32.165Z,12.98
2022-10-20T19:48:59.257Z,10.80
2022-10-20T19:51:25.966Z,12.68
2022-10-20T19:53:52.616Z,12.05
2022-10-20T19:56:19.254Z,11.77
2022-10-20T19:58:46.797Z,11.35
2022-10-20T20:01:13.921Z,14.15
2022-10-20T20:03:40.998Z,15.20
2022-10-20T20:06:10.727Z,16.20
2022-10-20T20:08:37.976Z,16.60
2022-10-20T20:11:05.829Z,24.42
2022-10-20T20:13:32.554Z,25.67
2022-10-20T20:16:07.821Z,22.05
2022-10-20T20:18:35.721Z,17.13
2022-10-20T20:21:04.343Z,17.08
2022-10-20T20:23:41.147Z,18.45
2022-10-20T20:26:16.155Z,17.02
2022-10-20T20:28:42.942Z,24.45
2022-10-20T20:31:11.747Z,15.38
2022-10-20T20:33:38.514Z,18.33
2022-10-20T20:36:07.883Z,20.60
2022-10-20T20:38:36.720Z,20.98
2022-10-20T20:41:10.237Z,24.65
2022-10-20T20:43:37.546Z,22.65
2022-10-20T20:46:10.657Z,21.52
2022-10-20T20:48:37.986Z,19.02
2022-10-20T20:51:05.282Z,21.83
2022-10-20T20:56:09.683Z,20.02
2022-10-20T20:58:36.720Z,21.52
2022-10-20T21:01:11.020Z,22.15
2022-10-20T21:03:37.770Z,21.73
2022-10-20T21:06:09.859Z,23.30
2022-10-20T21:08:38.050Z,20.60
2022-10-20T21:11:09.970Z,20.80
2022-10-20T21:13:37.470Z,23.48
2022-10-20T21:16:09.452Z,25.45
2022-10-20T21:18:36.092Z,22.67
2022-10-20T21:21:17.355Z,26.63
2022-10-20T21:23:44.444Z,24.52
2022-10-20T21:26:12.453Z,23.40
2022-10-20T21:28:39.355Z,23.77
2022-10-20T21:31:07.859Z,22.88
2022-10-20T21:33:35.550Z,23.98
2022-10-20T21:36:03.834Z,25.02
2022-10-20T21:38:32.344Z,23.25
2022-10-20T21:41:06.678Z,26.60
2022-10-20T21:43:34.939Z,30.55
2022-10-20T21:46:13.308Z,28.00
2022-10-20T21:48:40.883Z,28.98
2022-10-20T21:51:16.469Z,29.85
2022-10-20T21:53:43.422Z,28.70
2022-10-20T21:56:10.322Z,26.50
2022-10-20T21:58:37.753Z,27.23
2022-10-20T22:01:15.758Z,26.33
2022-10-20T22:03:43.502Z,27.63
2022-10-20T22:06:12.282Z,26.67
2022-10-20T22:08:41.587Z,27.70
2022-10-20T22:11:17.619Z,31.75
2022-10-20T22:13:44.250Z,32.20
2022-10-20T22:16:14.551Z,29.17
2022-10-20T22:18:41.461Z,28.60
2022-10-20T22:21:13.404Z,31.88
2022-10-20T22:23:41.525Z,33.58
2022-10-20T22:26:08.313Z,33.22
2022-10-20T22:28:35.010Z,32.50
2022-10-20T22:33:33.370Z,28.33
2022-10-20T22:35:59.977Z,31.30
2022-10-20T22:38:26.706Z,28.98
2022-10-20T22:41:01.097Z,32.67
2022-10-20T22:43:29.125Z,30.38
2022-10-20T22:45:55.863Z,30.17
2022-10-20T22:48:22.578Z,31.55
2022-10-20T22:50:49.509Z,34.88
2022-10-20T22:53:16.200Z,30.08
2022-10-20T22:55:42.894Z,33.95
2022-10-20T22:58:09.514Z,34.35
2022-10-20T23:00:39.232Z,31.67
2022-10-20T23:03:05.948Z,32.08
2022-10-20T23:05:32.646Z,40.78
2022-10-20T23:07:59.264Z,32.65
2022-10-20T23:10:25.812Z,32.70
2022-10-20T23:12:52.356Z,37.80
2022-10-20T23:15:18.932Z,37.05
2022-10-20T23:17:46.361Z,35.33
2022-10-20T23:20:13.060Z,42.20
2022-10-20T23:22:39.714Z,39.78
2022-10-20T23:25:06.798Z,43.38
2022-10-20T23:27:34.998Z,40.75
2022-10-20T23:30:02.046Z,37.60
2022-10-20T23:32:28.695Z,47.38
2022-10-20T23:34:55.331Z,42.08
2022-10-20T23:37:23.550Z,43.80
2022-10-20T23:39:50.157Z,47.08
2022-10-20T23:42:17.349Z,46.60
2022-10-20T23:44:44.116Z,53.58
2022-10-20T23:47:10.738Z,46.85
2022-10-20T23:49:37.382Z,44.63
2022-10-20T23:52:04.063Z,50.88
2022-10-20T23:54:30.644Z,47.80
2022-10-20T23:56:57.470Z,49.83
2022-10-20T23:59:24.140Z,50.78
